createdAt,value
2022-11-18T00:00:21.097Z,6.54
2022-11-18T00:03:23.709Z,6.50
2022-11-18T00:06:27.312Z,6.50
2022-11-18T00:09:29.500Z,6.51
2022-11-18T00:12:50.439Z,6.51
2022-11-18T00:16:06.943Z,6.55
2022-11-18T00:19:09.157Z,6.48
2022-11-18T00:22:13.111Z,6.49
2022-11-18T00:25:15.290Z,6.52
2022-11-18T00:28:17.454Z,6.37
2022-11-18T00:31:19.725Z,6.30
2022-11-18T00:34:22.217Z,6.15
2022-11-18T00:37:24.452Z,5.97
2022-11-18T00:40:26.683Z,5.96
2022-11-18T00:43:30.047Z,5.82
2022-11-18T00:46:32.342Z,5.73
2022-11-18T00:49:34.485Z,5.62
2022-11-18T00:52:36.683Z,5.62
2022-11-18T00:55:38.864Z,5.52
2022-11-18T00:58:41.065Z,5.38
2022-11-18T01:01:43.370Z,5.53
2022-11-18T01:04:45.716Z,5.52
2022-11-18T01:07:47.971Z,5.43
2022-11-18T01:10:50.841Z,5.42
2022-11-18T01:13:53.565Z,5.31
2022-11-18T01:16:56.756Z,5.39
2022-11-18T01:19:59.305Z,5.23
2022-11-18T01:23:01.650Z,5.15
2022-11-18T01:26:09.652Z,5.16
2022-11-18T01:29:11.936Z,5.19
2022-11-18T01:32:29.325Z,5.03
2022-11-18T01:35:36.355Z,4.86
2022-11-18T01:38:38.508Z,4.99
2022-11-18T01:41:40.721Z,5.13
2022-11-18T01:45:09.716Z,5.11
2022-11-18T01:48:15.203Z,5.09
2022-11-18T01:51:19.534Z,5.22
2022-11-18T01:54:27.150Z,5.23
2022-11-18T01:57:30.745Z,5.23
2022-11-18T02:00:32.967Z,5.51
2022-11-18T02:03:36.208Z,5.47
2022-11-18T02:06:38.623Z,5.47
2022-11-18T02:09:41.054Z,5.57
2022-11-18T02:12:43.308Z,5.72
2022-11-18T02:16:15.785Z,5.67
2022-11-18T02:19:18.148Z,5.61
2022-11-18T02:22:46.695Z,5.68
2022-11-18T02:26:10.497Z,5.77
2022-11-18T02:29:17.811Z,5.90
2022-11-18T02:32:33.802Z,5.91
2022-11-18T02:36:05.270Z,5.93
2022-11-18T02:39:17.381Z,5.97
2022-11-18T02:42:19.555Z,6.06
2022-11-18T02:45:22.578Z,6.13
2022-11-18T02:48:26.942Z,6.20
2022-11-18T02:51:30.924Z,6.14
2022-11-18T02:54:34.061Z,6.47
2022-11-18T02:57:37.560Z,6.54
2022-11-18T03:00:40.028Z,6.46
2022-11-18T03:03:42.245Z,6.55
2022-11-18T03:06:54.191Z,6.52
2022-11-18T03:09:57.611Z,6.72
2022-11-18T03:13:02.739Z,6.57
2022-11-18T03:16:10.579Z,6.45
2022-11-18T03:19:29.599Z,6.50
2022-11-18T03:22:34.750Z,6.69
2022-11-18T03:25:45.373Z,6.47
2022-11-18T03:28:58.972Z,6.49
2022-11-18T03:32:09.786Z,6.46
2022-11-18T03:35:16.464Z,6.55
2022-11-18T03:38:23.598Z,6.69
2022-11-18T03:41:26.712Z,6.53
2022-11-18T03:44:31.635Z,6.44
2022-11-18T03:47:36.779Z,6.38
2022-11-18T03:51:04.889Z,6.28
2022-11-18T03:54:11.838Z,6.17
2022-11-18T03:57:18.525Z,6.21
2022-11-18T04:00:20.898Z,6.26
2022-11-18T04:03:26.044Z,6.25
2022-11-18T04:06:38.812Z,6.14
2022-11-18T04:09:45.199Z,6.04
2022-11-18T04:12:58.591Z,5.95
2022-11-18T04:16:04.377Z,5.88
2022-11-18T04:19:06.703Z,5.77
2022-11-18T04:22:10.053Z,5.78
2022-11-18T04:25:12.302Z,5.70
2022-11-18T04:28:14.498Z,5.59
2022-11-18T04:31:16.710Z,5.51
2022-11-18T04:34:18.899Z,5.75
2022-11-18T04:37:21.422Z,5.78
2022-11-18T04:40:23.777Z,5.89
2022-11-18T04:43:25.954Z,5.79
2022-11-18T04:46:28.112Z,5.98
2022-11-18T04:49:30.583Z,5.90
2022-11-18T04:52:32.885Z,5.87
2022-11-18T04:55:37.839Z,5.75
2022-11-18T04:58:40.006Z,5.95
2022-11-18T05:01:42.526Z,6.01
2022-11-18T05:04:44.781Z,5.73
2022-11-18T05:07:47.148Z,5.85
2022-11-18T05:10:49.747Z,5.98
2022-11-18T05:13:52.342Z,5.85
2022-11-18T05:16:55.437Z,6.09
2022-11-18T05:19:57.581Z,6.10
2022-11-18T05:22:59.829Z,6.04
2022-11-18T05:26:05.982Z,6.11
2022-11-18T05:29:08.173Z,6.24
2022-11-18T05:32:10.479Z,6.30
2022-11-18T05:35:12.645Z,6.32
2022-11-18T05:38:14.895Z,6.38
2022-11-18T05:41:36.675Z,6.43
2022-11-18T05:44:39.050Z,6.41
2022-11-18T05:47:59.977Z,6.45
2022-11-18T05:51:02.230Z,6.43
2022-11-18T05:54:06.301Z,6.51
2022-11-18T05:57:08.703Z,6.45
2022-11-18T06:00:11.656Z,6.42
2022-11-18T06:03:27.511Z,6.34
2022-11-18T06:06:32.609Z,6.46
2022-11-18T06:09:37.077Z,6.54
2022-11-18T06:12:42.777Z,6.48
2022-11-18T06:15:45.545Z,6.55
2022-11-18T06:18:47.769Z,6.55
2022-11-18T06:21:50.527Z,6.67
2022-11-18T06:24:52.879Z,6.71
2022-11-18T06:27:57.535Z,6.71
2022-11-18T06:30:59.845Z,6.65
2022-11-18T06:34:02.069Z,6.62
2022-11-18T06:37:18.407Z,6.55
2022-11-18T06:40:20.731Z,6.57
2022-11-18T06:43:41.532Z,6.59
2022-11-18T06:46:55.452Z,6.76
2022-11-18T06:49:57.640Z,6.90
2022-11-18T06:53:01.176Z,6.99
2022-11-18T06:56:08.085Z,6.93
2022-11-18T06:59:10.353Z,6.98
2022-11-18T07:02:12.584Z,7.03
2022-11-18T07:05:14.782Z,6.97
2022-11-18T07:08:16.943Z,6.95
2022-11-18T07:11:24.581Z,7.07
2022-11-18T07:14:26.892Z,7.13
2022-11-18T07:17:30.692Z,7.06
2022-11-18T07:20:32.925Z,7.08
2022-11-18T07:23:35.674Z,7.19
2022-11-18T07:26:37.878Z,7.11
2022-11-18T07:29:40.034Z,7.17
2022-11-18T07:32:42.293Z,7.09
2022-11-18T07:35:44.479Z,7.04
2022-11-18T07:38:47.133Z,6.82
2022-11-18T07:41:49.305Z,6.55
2022-11-18T07:44:51.471Z,6.46
2022-11-18T07:47:53.720Z,6.46
2022-11-18T07:50:55.888Z,6.43
2022-11-18T07:53:58.207Z,6.56
2022-11-18T07:57:00.431Z,6.63
2022-11-18T08:00:04.422Z,6.87
2022-11-18T08:03:06.678Z,7.04
2022-11-18T08:06:10.156Z,7.12
2022-11-18T08:09:12.603Z,6.88
2022-11-18T08:12:14.888Z,6.97
2022-11-18T08:15:17.135Z,6.79
2022-11-18T08:18:19.415Z,6.92
2022-11-18T08:21:22.927Z,7.00
2022-11-18T08:24:25.175Z,7.15
2022-11-18T08:27:27.370Z,7.18
2022-11-18T08:30:29.575Z,7.22
2022-11-18T08:33:31.799Z,7.27
2022-11-18T08:36:36.361Z,7.28
2022-11-18T08:39:38.601Z,7.19
2022-11-18T08:42:40.838Z,7.20
2022-11-18T08:45:43.120Z,7.17
2022-11-18T08:48:45.330Z,7.13
2022-11-18T08:51:47.524Z,7.22
2022-11-18T08:54:49.724Z,7.17
2022-11-18T08:57:51.913Z,7.18
2022-11-18T09:00:54.395Z,7.26
2022-11-18T09:03:57.760Z,7.16
2022-11-18T09:06:59.964Z,7.09
2022-11-18T09:10:02.246Z,7.05
2022-11-18T09:13:25.217Z,7.11
2022-11-18T09:16:29.528Z,7.24
2022-11-18T09:19:46.780Z,7.03
2022-11-18T09:22:49.771Z,7.15
2022-11-18T09:26:02.486Z,7.02
2022-11-18T09:29:05.064Z,7.13
2022-11-18T09:32:07.279Z,6.88
2022-11-18T09:35:09.536Z,6.75
2022-11-18T09:38:11.808Z,6.70
2022-11-18T09:41:29.248Z,6.63
2022-11-18T09:44:43.216Z,6.17
2022-11-18T09:47:45.432Z,6.25
2022-11-18T09:50:50.300Z,6.27
2022-11-18T09:53:52.995Z,6.16
2022-11-18T09:56:55.857Z,6.01
2022-11-18T09:59:58.460Z,5.87
2022-11-18T10:03:01.714Z,5.90
2022-11-18T10:06:10.278Z,6.15
2022-11-18T10:09:38.270Z,6.21
2022-11-18T10:12:47.498Z,6.31
2022-11-18T10:16:04.202Z,6.08
2022-11-18T10:19:36.229Z,6.18
2022-11-18T10:22:48.892Z,6.09
2022-11-18T10:25:53.574Z,6.03
2022-11-18T10:28:55.793Z,5.97
2022-11-18T10:32:17.094Z,6.23
2022-11-18T10:35:36.675Z,6.08
2022-11-18T10:38:39.278Z,5.95
2022-11-18T10:41:50.345Z,5.91
2022-11-18T10:44:52.611Z,5.85
2022-11-18T10:48:18.290Z,5.85
2022-11-18T10:51:23.418Z,5.79
2022-11-18T10:54:25.780Z,5.96
2022-11-18T10:57:30.451Z,6.11
2022-11-18T11:00:52.836Z,5.98
2022-11-18T11:04:23.333Z,5.81
2022-11-18T11:07:28.674Z,5.79
2022-11-18T11:10:30.956Z,5.68
2022-11-18T11:13:36.024Z,5.61
2022-11-18T11:17:04.164Z,5.53
2022-11-18T11:20:23.925Z,5.51
2022-11-18T11:23:26.736Z,5.34
2022-11-18T11:30:11.915Z,5.40
2022-11-18T11:33:41.423Z,5.62
2022-11-18T11:37:03.806Z,5.69
2022-11-18T11:40:30.632Z,5.58
2022-11-18T11:43:43.640Z,5.55
2022-11-18T11:47:13.628Z,5.53
2022-11-18T11:50:18.725Z,5.46
2022-11-18T11:53:43.452Z,5.80
2022-11-18T11:56:55.734Z,5.84
2022-11-18T12:00:06.164Z,5.81
2022-11-18T12:03:20.590Z,5.83
2022-11-18T12:06:22.814Z,5.72
2022-11-18T12:09:39.367Z,5.75
2022-11-18T12:13:08.960Z,5.68
2022-11-18T12:16:19.876Z,5.70
2022-11-18T12:19:22.835Z,5.77
2022-11-18T12:23:03.339Z,5.72
2022-11-18T12:26:09.521Z,5.50
2022-11-18T12:29:20.801Z,5.41
2022-11-18T12:32:27.320Z,5.48
2022-11-18T12:35:35.168Z,5.52
2022-11-18T12:38:37.420Z,5.34
2022-11-18T12:41:58.271Z,5.15
2022-11-18T12:45:38.763Z,5.19
2022-11-18T12:48:41.285Z,5.04
2022-11-18T12:51:44.361Z,5.02
2022-11-18T12:54:48.373Z,5.09
2022-11-18T12:57:50.620Z,5.07
2022-11-18T13:01:12.586Z,5.20
2022-11-18T13:04:20.099Z,5.16
2022-11-18T13:07:40.993Z,5.19
2022-11-18T13:10:55.904Z,5.18
2022-11-18T13:14:16.912Z,5.19
2022-11-18T13:17:52.272Z,5.16
2022-11-18T13:20:57.788Z,5.21
2022-11-18T13:24:01.118Z,5.21
2022-11-18T13:27:03.389Z,5.24
2022-11-18T13:30:15.255Z,5.24
2022-11-18T13:33:17.481Z,5.23
2022-11-18T13:36:24.448Z,5.24
2022-11-18T13:39:29.415Z,5.26
2022-11-18T13:42:32.093Z,5.34
2022-11-18T13:45:34.765Z,5.38
2022-11-18T13:48:40.971Z,5.45
2022-11-18T13:51:43.187Z,5.44
2022-11-18T13:54:46.189Z,5.44
2022-11-18T13:57:54.092Z,5.57
2022-11-18T14:00:58.417Z,5.54
2022-11-18T14:04:09.676Z,5.57
2022-11-18T14:07:34.987Z,5.70
2022-11-18T14:10:43.749Z,5.75
2022-11-18T14:13:52.186Z,5.82
2022-11-18T14:16:54.477Z,5.70
2022-11-18T14:19:58.264Z,5.59
2022-11-18T14:23:01.444Z,5.63
2022-11-18T14:26:05.357Z,5.63
2022-11-18T14:29:21.435Z,5.70
2022-11-18T14:32:23.961Z,5.84
2022-11-18T14:35:30.444Z,5.75
2022-11-18T14:41:58.625Z,6.02
2022-11-18T14:45:00.886Z,5.91
2022-11-18T14:48:03.196Z,5.83
2022-11-18T14:51:05.519Z,5.77
2022-11-18T14:54:11.399Z,5.72
2022-11-18T14:57:17.585Z,5.70
2022-11-18T15:00:20.208Z,5.67
2022-11-18T15:03:22.438Z,5.69
2022-11-18T15:06:24.821Z,5.66
2022-11-18T15:09:27.164Z,5.59
2022-11-18T15:12:29.330Z,5.67
2022-11-18T15:15:31.666Z,5.65
2022-11-18T15:18:33.863Z,5.71
2022-11-18T15:21:36.116Z,5.71
2022-11-18T15:24:38.541Z,5.73
2022-11-18T15:27:41.129Z,5.78
2022-11-18T15:30:43.294Z,5.76
2022-11-18T15:33:45.997Z,5.77
2022-11-18T15:36:48.539Z,5.80
2022-11-18T15:39:50.730Z,5.76
2022-11-18T15:42:52.912Z,5.85
2022-11-18T15:45:58.923Z,5.86
2022-11-18T15:49:01.529Z,6.08
2022-11-18T15:52:03.845Z,6.05
2022-11-18T15:55:08.201Z,6.17
2022-11-18T15:58:10.597Z,6.33
2022-11-18T16:01:12.799Z,6.40
2022-11-18T16:04:18.714Z,6.30
2022-11-18T16:07:21.326Z,6.35
2022-11-18T16:10:42.007Z,6.19
2022-11-18T16:13:44.456Z,6.16
2022-11-18T16:16:48.007Z,5.97
2022-11-18T16:19:50.444Z,5.89
2022-11-18T16:22:53.972Z,5.87
2022-11-18T16:25:56.159Z,5.93
2022-11-18T16:28:58.895Z,5.86
2022-11-18T16:32:01.021Z,6.00
2022-11-18T16:35:03.227Z,5.98
2022-11-18T16:38:08.149Z,5.83
2022-11-18T16:41:28.814Z,5.81
2022-11-18T16:44:31.129Z,5.93
2022-11-18T16:47:33.358Z,5.95
2022-11-18T16:50:35.555Z,5.83
2022-11-18T16:53:38.924Z,5.89
2022-11-18T16:56:41.275Z,5.98
2022-11-18T16:59:43.455Z,6.20
2022-11-18T17:02:45.811Z,6.15
2022-11-18T17:05:48.053Z,6.19
2022-11-18T17:08:50.299Z,6.18
2022-11-18T17:11:54.258Z,6.19
2022-11-18T17:14:56.496Z,6.21
2022-11-18T17:17:58.786Z,6.11
2022-11-18T17:21:12.421Z,6.16
2022-11-18T17:24:16.597Z,6.16
2022-11-18T17:27:18.967Z,6.12
2022-11-18T17:30:21.113Z,6.10
2022-11-18T17:33:23.478Z,6.05
2022-11-18T17:36:27.318Z,6.08
2022-11-18T17:39:29.553Z,6.23
2022-11-18T17:42:31.885Z,6.36
2022-11-18T17:45:34.296Z,6.45
2022-11-18T17:48:36.672Z,6.56
2022-11-18T17:51:39.315Z,6.48
2022-11-18T17:54:41.537Z,6.47
2022-11-18T17:57:43.734Z,6.52
2022-11-18T18:00:45.891Z,6.49
2022-11-18T18:03:49.025Z,6.65
2022-11-18T18:06:52.905Z,6.63
2022-11-18T18:09:55.228Z,6.63
2022-11-18T18:13:15.764Z,6.67
2022-11-18T18:16:18.662Z,6.67
2022-11-18T18:19:22.574Z,6.75
2022-11-18T18:22:25.178Z,6.73
2022-11-18T18:25:27.591Z,6.69
2022-11-18T18:28:30.095Z,6.65
2022-11-18T18:31:35.126Z,6.66
2022-11-18T18:34:37.334Z,6.61
2022-11-18T18:37:39.649Z,6.67
2022-11-18T18:40:41.847Z,6.64
2022-11-18T18:43:45.840Z,6.59
2022-11-18T18:46:48.185Z,6.64
2022-11-18T18:49:50.422Z,6.71
2022-11-18T18:52:53.108Z,6.78
2022-11-18T18:55:56.128Z,6.77
2022-11-18T18:58:58.985Z,6.76
2022-11-18T19:02:01.457Z,6.71
2022-11-18T19:05:04.250Z,6.69
2022-11-18T19:08:07.808Z,6.70
2022-11-18T19:11:30.226Z,6.81
2022-11-18T19:14:34.921Z,6.80
2022-11-18T19:17:37.616Z,6.78
2022-11-18T19:20:43.271Z,6.84
2022-11-18T19:23:46.418Z,6.80
2022-11-18T19:26:48.807Z,6.78
2022-11-18T19:29:51.437Z,6.79
2022-11-18T19:32:55.851Z,6.78
2022-11-18T19:36:02.183Z,6.81
2022-11-18T19:39:04.643Z,6.81
2022-11-18T19:42:07.694Z,6.81
2022-11-18T19:45:10.730Z,6.83
2022-11-18T19:48:13.200Z,6.81
2022-11-18T19:51:15.820Z,6.78
2022-11-18T19:54:18.232Z,6.86
2022-11-18T19:57:20.976Z,6.86
2022-11-18T20:00:23.420Z,6.87
2022-11-18T20:03:28.092Z,6.89
2022-11-18T20:06:30.390Z,6.88
2022-11-18T20:09:32.860Z,6.85
2022-11-18T20:12:36.220Z,6.93
2022-11-18T20:15:39.325Z,6.91
2022-11-18T20:18:42.896Z,6.91
2022-11-18T20:21:47.854Z,7.03
2022-11-18T20:24:50.403Z,7.04
2022-11-18T20:27:53.128Z,7.04
2022-11-18T20:30:56.228Z,6.98
2022-11-18T20:33:58.867Z,7.02
2022-11-18T20:37:01.398Z,6.99
2022-11-18T20:40:04.326Z,7.05
2022-11-18T20:43:12.193Z,7.09
2022-11-18T20:46:20.372Z,7.12
2022-11-18T20:49:23.534Z,7.09
2022-11-18T20:52:25.900Z,6.95
2022-11-18T20:55:28.385Z,6.93
2022-11-18T20:58:31.645Z,6.90
2022-11-18T21:01:34.063Z,6.94
2022-11-18T21:04:38.041Z,6.85
2022-11-18T21:07:40.221Z,6.90
2022-11-18T21:10:42.732Z,6.76
2022-11-18T21:14:03.491Z,6.76
2022-11-18T21:17:06.469Z,6.77
2022-11-18T21:20:29.084Z,6.65
2022-11-18T21:23:32.187Z,6.70
2022-11-18T21:26:35.668Z,6.71
2022-11-18T21:29:38.082Z,6.62
2022-11-18T21:32:40.272Z,6.62
2022-11-18T21:35:42.470Z,6.57
2022-11-18T21:38:44.889Z,6.50
2022-11-18T21:41:52.024Z,6.51
2022-11-18T21:44:57.368Z,6.46
2022-11-18T21:47:59.560Z,6.14
2022-11-18T21:51:03.121Z,6.07
2022-11-18T21:54:05.476Z,6.13
2022-11-18T21:57:07.657Z,5.89
2022-11-18T22:00:10.728Z,5.92
2022-11-18T22:03:12.881Z,5.78
2022-11-18T22:06:15.528Z,5.91
2022-11-18T22:09:18.089Z,5.66
2022-11-18T22:12:20.800Z,5.67
2022-11-18T22:15:23.035Z,5.48
2022-11-18T22:18:25.237Z,5.49
2022-11-18T22:21:27.467Z,5.26
2022-11-18T22:24:29.719Z,5.16
2022-11-18T22:27:31.880Z,4.95
2022-11-18T22:30:34.082Z,4.89
2022-11-18T22:33:36.731Z,4.85
2022-11-18T22:36:38.964Z,4.78
2022-11-18T22:39:41.168Z,4.73
2022-11-18T22:42:49.255Z,4.71
2022-11-18T22:46:06.559Z,4.74
2022-11-18T22:49:09.827Z,4.57
2022-11-18T22:52:11.999Z,4.45
2022-11-18T22:55:14.257Z,4.44
2022-11-18T22:58:16.484Z,4.37
2022-11-18T23:01:20.425Z,4.28
2022-11-18T23:04:22.604Z,4.35
2022-11-18T23:07:24.920Z,4.23
2022-11-18T23:10:27.152Z,4.19
2022-11-18T23:13:48.139Z,4.09
2022-11-18T23:16:50.357Z,4.21
2022-11-18T23:19:52.482Z,4.22
2022-11-18T23:22:54.672Z,4.19
2022-11-18T23:26:08.701Z,4.16
2022-11-18T23:29:12.000Z,4.05
2022-11-18T23:32:14.167Z,4.02
2022-11-18T23:35:16.362Z,4.03
2022-11-18T23:38:18.796Z,4.10
2022-11-18T23:41:21.427Z,4.27
2022-11-18T23:44:43.549Z,4.09
2022-11-18T23:47:45.740Z,4.17
2022-11-18T23:50:58.865Z,4.14
2022-11-18T23:54:01.029Z,4.18
2022-11-18T23:57:05.244Z,4.13
